sensor_id;sensor_type;location;lat;lon;timestamp;P1;durP1;ratioP1;P2;durP2;ratioP2
41943;SDS011;27636;52.610;13.244;2023-02-13T00:02:24;12.00;;;3.10;;
41943;SDS011;27636;52.610;13.244;2023-02-13T00:07:28;10.38;;;2.88;;
41943;SDS011;27636;52.610;13.244;2023-02-13T00:12:33;12.65;;;3.03;;
41943;SDS011;27636;52.610;13.244;2023-02-13T00:17:37;9.05;;;3.08;;
41943;SDS011;27636;52.610;13.244;2023-02-13T00:22:40;13.25;;;3.22;;
41943;SDS011;27636;52.610;13.244;2023-02-13T00:27:44;8.35;;;2.42;;
41943;SDS011;27636;52.610;13.244;2023-02-13T00:32:48;8.40;;;2.40;;
41943;SDS011;27636;52.610;13.244;2023-02-13T00:37:51;7.93;;;2.00;;
41943;SDS011;27636;52.610;13.244;2023-02-13T00:42:55;8.45;;;2.22;;
41943;SDS011;27636;52.610;13.244;2023-02-13T00:47:59;6.15;;;1.92;;
41943;SDS011;27636;52.610;13.244;2023-02-13T00:53:02;6.30;;;1.95;;
41943;SDS011;27636;52.610;13.244;2023-02-13T00:58:07;6.43;;;1.38;;
41943;SDS011;27636;52.610;13.244;2023-02-13T01:03:10;5.50;;;2.05;;
41943;SDS011;27636;52.610;13.244;2023-02-13T01:08:14;4.32;;;1.63;;
41943;SDS011;27636;52.610;13.244;2023-02-13T01:13:20;5.90;;;1.58;;
41943;SDS011;27636;52.610;13.244;2023-02-13T01:18:24;6.03;;;1.93;;
41943;SDS011;27636;52.610;13.244;2023-02-13T01:23:29;7.07;;;1.90;;
41943;SDS011;27636;52.610;13.244;2023-02-13T01:28:34;4.18;;;1.60;;
41943;SDS011;27636;52.610;13.244;2023-02-13T01:33:39;6.15;;;1.80;;
41943;SDS011;27636;52.610;13.244;2023-02-13T01:38:42;5.03;;;1.75;;
41943;SDS011;27636;52.610;13.244;2023-02-13T01:43:51;5.75;;;2.05;;
41943;SDS011;27636;52.610;13.244;2023-02-13T01:48:57;7.95;;;1.63;;
41943;SDS011;27636;52.610;13.244;2023-02-13T01:54:04;4.53;;;1.55;;
41943;SDS011;27636;52.610;13.244;2023-02-13T01:59:14;8.23;;;2.17;;
41943;SDS011;27636;52.610;13.244;2023-02-13T02:04:22;7.07;;;2.00;;
41943;SDS011;27636;52.610;13.244;2023-02-13T02:09:29;6.78;;;2.13;;
41943;SDS011;27636;52.610;13.244;2023-02-13T02:14:36;8.25;;;2.35;;
41943;SDS011;27636;52.610;13.244;2023-02-13T02:19:45;13.80;;;2.70;;
41943;SDS011;27636;52.610;13.244;2023-02-13T02:24:58;11.52;;;3.00;;
41943;SDS011;27636;52.610;13.244;2023-02-13T02:30:39;12.13;;;3.78;;
41943;SDS011;27636;52.610;13.244;2023-02-13T02:36:03;12.82;;;3.58;;
41943;SDS011;27636;52.610;13.244;2023-02-13T02:41:18;9.30;;;3.30;;
41943;SDS011;27636;52.610;13.244;2023-02-13T02:46:57;8.23;;;2.70;;
41943;SDS011;27636;52.610;13.244;2023-02-13T02:52:34;7.55;;;2.50;;
41943;SDS011;27636;52.610;13.244;2023-02-13T02:57:47;8.70;;;3.30;;
41943;SDS011;27636;52.610;13.244;2023-02-13T03:03:16;9.68;;;3.95;;
41943;SDS011;27636;52.610;13.244;2023-02-13T03:08:42;8.52;;;3.15;;
41943;SDS011;27636;52.610;13.244;2023-02-13T03:14:08;10.75;;;3.28;;
41943;SDS011;27636;52.610;13.244;2023-02-13T03:19:14;12.55;;;3.75;;
41943;SDS011;27636;52.610;13.244;2023-02-13T03:24:46;9.13;;;3.13;;
41943;SDS011;27636;52.610;13.244;2023-02-13T03:29:56;11.43;;;4.57;;
41943;SDS011;27636;52.610;13.244;2023-02-13T03:35:19;15.55;;;4.28;;
41943;SDS011;27636;52.610;13.244;2023-02-13T03:40:49;14.98;;;5.00;;
41943;SDS011;27636;52.610;13.244;2023-02-13T03:46:15;22.05;;;6.30;;
41943;SDS011;27636;52.610;13.244;2023-02-13T03:51:21;16.90;;;6.07;;
41943;SDS011;27636;52.610;13.244;2023-02-13T03:56:31;27.65;;;8.38;;
41943;SDS011;27636;52.610;13.244;2023-02-13T04:01:57;22.05;;;7.80;;
41943;SDS011;27636;52.610;13.244;2023-02-13T04:07:04;19.75;;;6.72;;
41943;SDS011;27636;52.610;13.244;2023-02-13T04:12:13;15.23;;;5.40;;
41943;SDS011;27636;52.610;13.244;2023-02-13T04:17:21;16.85;;;5.30;;
41943;SDS011;27636;52.610;13.244;2023-02-13T04:22:29;26.67;;;7.63;;
41943;SDS011;27636;52.610;13.244;2023-02-13T04:27:34;22.10;;;5.95;;
41943;SDS011;27636;52.610;13.244;2023-02-13T04:32:38;16.05;;;5.45;;
41943;SDS011;27636;52.610;13.244;2023-02-13T04:37:41;25.92;;;7.55;;
41943;SDS011;27636;52.610;13.244;2023-02-13T04:42:47;23.70;;;6.70;;
41943;SDS011;27636;52.610;13.244;2023-02-13T04:47:51;15.93;;;5.82;;
41943;SDS011;27636;52.610;13.244;2023-02-13T04:52:56;29.50;;;8.98;;
41943;SDS011;27636;52.610;13.244;2023-02-13T04:58:01;22.98;;;7.95;;
41943;SDS011;27636;52.610;13.244;2023-02-13T05:03:04;16.53;;;6.20;;
41943;SDS011;27636;52.610;13.244;2023-02-13T05:08:09;22.63;;;6.80;;
41943;SDS011;27636;52.610;13.244;2023-02-13T05:13:13;16.23;;;5.78;;
41943;SDS011;27636;52.610;13.244;2023-02-13T05:18:18;18.42;;;6.35;;
41943;SDS011;27636;52.610;13.244;2023-02-13T05:23:22;23.83;;;5.90;;
41943;SDS011;27636;52.610;13.244;2023-02-13T05:28:26;16.90;;;4.47;;
41943;SDS011;27636;52.610;13.244;2023-02-13T05:34:05;20.30;;;6.03;;
41943;SDS011;27636;52.610;13.244;2023-02-13T05:39:09;18.20;;;6.18;;
41943;SDS011;27636;52.610;13.244;2023-02-13T05:44:13;20.75;;;6.10;;
41943;SDS011;27636;52.610;13.244;2023-02-13T05:49:17;19.33;;;7.35;;
41943;SDS011;27636;52.610;13.244;2023-02-13T05:54:20;15.38;;;5.45;;
41943;SDS011;27636;52.610;13.244;2023-02-13T05:59:25;21.33;;;5.20;;
41943;SDS011;27636;52.610;13.244;2023-02-13T06:04:29;16.23;;;5.97;;
41943;SDS011;27636;52.610;13.244;2023-02-13T06:09:32;18.73;;;4.70;;
41943;SDS011;27636;52.610;13.244;2023-02-13T06:14:36;16.20;;;5.43;;
41943;SDS011;27636;52.610;13.244;2023-02-13T06:19:40;19.42;;;6.25;;
41943;SDS011;27636;52.610;13.244;2023-02-13T06:24:43;13.45;;;5.20;;
41943;SDS011;27636;52.610;13.244;2023-02-13T06:29:48;12.85;;;5.38;;
41943;SDS011;27636;52.610;13.244;2023-02-13T06:34:51;26.07;;;6.73;;
41943;SDS011;27636;52.610;13.244;2023-02-13T06:39:54;14.80;;;5.20;;
41943;SDS011;27636;52.610;13.244;2023-02-13T06:44:59;13.57;;;4.85;;
41943;SDS011;27636;52.610;13.244;2023-02-13T06:50:02;16.25;;;5.13;;
41943;SDS011;27636;52.610;13.244;2023-02-13T06:55:06;17.05;;;6.13;;
41943;SDS011;27636;52.610;13.244;2023-02-13T07:00:12;12.77;;;5.63;;
41943;SDS011;27636;52.610;13.244;2023-02-13T07:05:17;16.02;;;5.15;;
41943;SDS011;27636;52.610;13.244;2023-02-13T07:10:20;16.98;;;5.53;;
41943;SDS011;27636;52.610;13.244;2023-02-13T07:15:26;10.23;;;4.33;;
41943;SDS011;27636;52.610;13.244;2023-02-13T07:20:30;21.23;;;5.83;;
41943;SDS011;27636;52.610;13.244;2023-02-13T07:25:34;17.48;;;5.55;;
41943;SDS011;27636;52.610;13.244;2023-02-13T07:30:38;12.68;;;5.30;;
41943;SDS011;27636;52.610;13.244;2023-02-13T07:35:44;12.50;;;5.30;;
41943;SDS011;27636;52.610;13.244;2023-02-13T07:40:48;14.98;;;5.60;;
41943;SDS011;27636;52.610;13.244;2023-02-13T07:45:52;16.60;;;4.97;;
41943;SDS011;27636;52.610;13.244;2023-02-13T07:50:59;10.10;;;4.70;;
41943;SDS011;27636;52.610;13.244;2023-02-13T07:56:04;14.98;;;6.03;;
41943;SDS011;27636;52.610;13.244;2023-02-13T08:01:11;11.65;;;4.80;;
41943;SDS011;27636;52.610;13.244;2023-02-13T08:06:15;17.67;;;5.30;;
41943;SDS011;27636;52.610;13.244;2023-02-13T08:11:21;10.70;;;4.88;;
41943;SDS011;27636;52.610;13.244;2023-02-13T08:16:47;17.17;;;6.13;;
41943;SDS011;27636;52.610;13.244;2023-02-13T08:21:51;11.03;;;4.97;;
41943;SDS011;27636;52.610;13.244;2023-02-13T08:26:54;17.02;;;5.43;;
41943;SDS011;27636;52.610;13.244;2023-02-13T08:31:59;14.23;;;5.10;;
41943;SDS011;27636;52.610;13.244;2023-02-13T08:37:02;9.60;;;4.03;;
41943;SDS011;27636;52.610;13.244;2023-02-13T08:42:05;14.15;;;5.47;;
41943;SDS011;27636;52.610;13.244;2023-02-13T08:47:10;10.23;;;4.05;;
41943;SDS011;27636;52.610;13.244;2023-02-13T08:52:13;8.93;;;4.15;;
41943;SDS011;27636;52.610;13.244;2023-02-13T08:57:17;11.80;;;5.28;;
41943;SDS011;27636;52.610;13.244;2023-02-13T09:02:21;15.23;;;6.25;;
41943;SDS011;27636;52.610;13.244;2023-02-13T09:07:25;12.70;;;5.25;;
41943;SDS011;27636;52.610;13.244;2023-02-13T09:12:28;14.98;;;4.47;;
41943;SDS011;27636;52.610;13.244;2023-02-13T09:17:33;14.80;;;5.50;;
41943;SDS011;27636;52.610;13.244;2023-02-13T09:22:36;18.30;;;5.43;;
41943;SDS011;27636;52.610;13.244;2023-02-13T09:27:40;14.38;;;4.85;;
41943;SDS011;27636;52.610;13.244;2023-02-13T09:32:45;20.73;;;5.43;;
41943;SDS011;27636;52.610;13.244;2023-02-13T09:37:49;18.35;;;5.78;;
41943;SDS011;27636;52.610;13.244;2023-02-13T09:42:52;16.90;;;6.13;;
41943;SDS011;27636;52.610;13.244;2023-02-13T09:48:08;18.63;;;7.05;;
41943;SDS011;27636;52.610;13.244;2023-02-13T09:53:19;18.98;;;6.03;;
41943;SDS011;27636;52.610;13.244;2023-02-13T09:58:29;15.52;;;5.72;;
41943;SDS011;27636;52.610;13.244;2023-02-13T10:03:43;17.95;;;6.13;;
41943;SDS011;27636;52.610;13.244;2023-02-13T10:08:56;17.13;;;5.70;;
41943;SDS011;27636;52.610;13.244;2023-02-13T10:14:08;16.60;;;5.82;;
41943;SDS011;27636;52.610;13.244;2023-02-13T10:19:24;16.02;;;6.30;;
41943;SDS011;27636;52.610;13.244;2023-02-13T10:24:36;18.52;;;6.90;;
41943;SDS011;27636;52.610;13.244;2023-02-13T10:29:44;17.52;;;6.85;;
41943;SDS011;27636;52.610;13.244;2023-02-13T10:35:15;19.20;;;7.10;;
41943;SDS011;27636;52.610;13.244;2023-02-13T10:40:23;19.67;;;6.75;;
41943;SDS011;27636;52.610;13.244;2023-02-13T10:45:40;21.80;;;7.75;;
41943;SDS011;27636;52.610;13.244;2023-02-13T10:50:57;24.15;;;7.82;;
41943;SDS011;27636;52.610;13.244;2023-02-13T10:56:19;22.65;;;7.25;;
41943;SDS011;27636;52.610;13.244;2023-02-13T11:01:30;23.35;;;7.82;;
41943;SDS011;27636;52.610;13.244;2023-02-13T11:06:40;21.52;;;7.55;;
41943;SDS011;27636;52.610;13.244;2023-02-13T11:11:45;22.63;;;8.30;;
41943;SDS011;27636;52.610;13.244;2023-02-13T11:16:50;27.20;;;7.93;;
41943;SDS011;27636;52.610;13.244;2023-02-13T11:21:58;22.50;;;8.35;;
41943;SDS011;27636;52.610;13.244;2023-02-13T11:27:06;20.70;;;7.97;;
41943;SDS011;27636;52.610;13.244;2023-02-13T11:32:19;22.92;;;7.32;;
41943;SDS011;27636;52.610;13.244;2023-02-13T11:37:26;24.05;;;8.40;;
41943;SDS011;27636;52.610;13.244;2023-02-13T11:42:31;23.35;;;8.30;;
41943;SDS011;27636;52.610;13.244;2023-02-13T11:47:38;23.13;;;7.45;;
41943;SDS011;27636;52.610;13.244;2023-02-13T11:52:44;20.30;;;8.30;;
41943;SDS011;27636;52.610;13.244;2023-02-13T11:57:57;27.08;;;8.57;;
41943;SDS011;27636;52.610;13.244;2023-02-13T12:03:02;19.58;;;7.80;;
41943;SDS011;27636;52.610;13.244;2023-02-13T12:08:30;21.65;;;8.32;;
41943;SDS011;27636;52.610;13.244;2023-02-13T12:13:36;22.88;;;8.40;;
41943;SDS011;27636;52.610;13.244;2023-02-13T12:23:47;21.70;;;8.77;;
41943;SDS011;27636;52.610;13.244;2023-02-13T12:29:07;22.38;;;7.25;;
41943;SDS011;27636;52.610;13.244;2023-02-13T12:34:46;19.80;;;6.78;;
41943;SDS011;27636;52.610;13.244;2023-02-13T12:40:11;23.92;;;8.05;;
41943;SDS011;27636;52.610;13.244;2023-02-13T12:45:34;21.90;;;7.90;;
41943;SDS011;27636;52.610;13.244;2023-02-13T12:50:50;18.45;;;7.18;;
41943;SDS011;27636;52.610;13.244;2023-02-13T12:56:14;25.33;;;8.23;;
41943;SDS011;27636;52.610;13.244;2023-02-13T13:01:55;20.80;;;6.82;;
41943;SDS011;27636;52.610;13.244;2023-02-13T13:07:18;19.38;;;7.38;;
41943;SDS011;27636;52.610;13.244;2023-02-13T13:12:35;20.55;;;7.75;;
41943;SDS011;27636;52.610;13.244;2023-02-13T13:17:49;17.17;;;6.85;;
41943;SDS011;27636;52.610;13.244;2023-02-13T13:23:02;20.50;;;7.25;;
41943;SDS011;27636;52.610;13.244;2023-02-13T13:28:13;18.88;;;6.57;;
41943;SDS011;27636;52.610;13.244;2023-02-13T13:33:20;21.60;;;6.40;;
41943;SDS011;27636;52.610;13.244;2023-02-13T13:38:28;20.98;;;6.97;;
41943;SDS011;27636;52.610;13.244;2023-02-13T13:43:49;18.80;;;6.45;;
41943;SDS011;27636;52.610;13.244;2023-02-13T13:49:11;18.50;;;6.78;;
41943;SDS011;27636;52.610;13.244;2023-02-13T13:54:32;20.55;;;7.00;;
41943;SDS011;27636;52.610;13.244;2023-02-13T14:05:27;18.70;;;7.28;;
41943;SDS011;27636;52.610;13.244;2023-02-13T14:16:36;18.33;;;6.35;;
41943;SDS011;27636;52.610;13.244;2023-02-13T14:21:43;15.07;;;6.35;;
41943;SDS011;27636;52.610;13.244;2023-02-13T14:26:51;19.40;;;6.75;;
41943;SDS011;27636;52.610;13.244;2023-02-13T14:32:15;14.98;;;6.70;;
41943;SDS011;27636;52.610;13.244;2023-02-13T14:37:23;17.60;;;6.43;;
41943;SDS011;27636;52.610;13.244;2023-02-13T14:42:33;22.20;;;8.02;;
41943;SDS011;27636;52.610;13.244;2023-02-13T14:47:39;22.43;;;7.30;;
41943;SDS011;27636;52.610;13.244;2023-02-13T14:52:45;18.30;;;6.80;;
41943;SDS011;27636;52.610;13.244;2023-02-13T14:57:50;21.02;;;6.90;;
41943;SDS011;27636;52.610;13.244;2023-02-13T15:02:57;24.65;;;6.70;;
41943;SDS011;27636;52.610;13.244;2023-02-13T15:08:06;21.90;;;6.13;;
41943;SDS011;27636;52.610;13.244;2023-02-13T15:13:16;17.38;;;6.32;;
41943;SDS011;27636;52.610;13.244;2023-02-13T15:18:23;16.60;;;6.07;;
41943;SDS011;27636;52.610;13.244;2023-02-13T15:23:29;19.95;;;6.82;;
41943;SDS011;27636;52.610;13.244;2023-02-13T15:28:34;21.00;;;7.03;;
41943;SDS011;27636;52.610;13.244;2023-02-13T15:33:42;21.63;;;8.38;;
41943;SDS011;27636;52.610;13.244;2023-02-13T15:38:48;17.48;;;7.07;;
41943;SDS011;27636;52.610;13.244;2023-02-13T15:43:52;17.70;;;7.00;;
41943;SDS011;27636;52.610;13.244;2023-02-13T15:48:59;21.83;;;8.35;;
41943;SDS011;27636;52.610;13.244;2023-02-13T15:54:20;21.80;;;8.30;;
41943;SDS011;27636;52.610;13.244;2023-02-13T15:59:25;21.67;;;8.68;;
41943;SDS011;27636;52.610;13.244;2023-02-13T16:04:33;18.95;;;7.43;;
41943;SDS011;27636;52.610;13.244;2023-02-13T16:09:38;18.08;;;7.60;;
41943;SDS011;27636;52.610;13.244;2023-02-13T16:14:43;21.20;;;8.27;;
41943;SDS011;27636;52.610;13.244;2023-02-13T16:19:51;20.35;;;6.63;;
41943;SDS011;27636;52.610;13.244;2023-02-13T16:25:03;27.40;;;8.48;;
41943;SDS011;27636;52.610;13.244;2023-02-13T16:30:23;21.85;;;8.05;;
41943;SDS011;27636;52.610;13.244;2023-02-13T16:35:34;22.25;;;8.45;;
41943;SDS011;27636;52.610;13.244;2023-02-13T16:40:41;21.88;;;9.68;;
41943;SDS011;27636;52.610;13.244;2023-02-13T16:45:46;22.00;;;8.88;;
41943;SDS011;27636;52.610;13.244;2023-02-13T16:50:53;26.60;;;8.48;;
41943;SDS011;27636;52.610;13.244;2023-02-13T16:55:58;24.33;;;10.00;;
41943;SDS011;27636;52.610;13.244;2023-02-13T17:01:05;27.10;;;10.07;;
41943;SDS011;27636;52.610;13.244;2023-02-13T17:06:08;21.52;;;7.75;;
41943;SDS011;27636;52.610;13.244;2023-02-13T17:11:15;28.10;;;8.75;;
41943;SDS011;27636;52.610;13.244;2023-02-13T17:16:23;17.80;;;7.32;;
41943;SDS011;27636;52.610;13.244;2023-02-13T17:21:27;23.25;;;8.32;;
41943;SDS011;27636;52.610;13.244;2023-02-13T17:26:31;26.45;;;10.55;;
41943;SDS011;27636;52.610;13.244;2023-02-13T17:31:35;26.73;;;10.27;;
41943;SDS011;27636;52.610;13.244;2023-02-13T17:36:39;22.65;;;9.60;;
41943;SDS011;27636;52.610;13.244;2023-02-13T17:41:43;22.20;;;8.73;;
41943;SDS011;27636;52.610;13.244;2023-02-13T17:46:47;30.05;;;9.32;;
41943;SDS011;27636;52.610;13.244;2023-02-13T17:51:50;20.55;;;8.13;;
41943;SDS011;27636;52.610;13.244;2023-02-13T17:56:55;21.77;;;7.47;;
41943;SDS011;27636;52.610;13.244;2023-02-13T18:01:58;27.10;;;8.83;;
41943;SDS011;27636;52.610;13.244;2023-02-13T18:07:02;26.02;;;8.45;;
41943;SDS011;27636;52.610;13.244;2023-02-13T18:12:07;42.38;;;16.75;;
41943;SDS011;27636;52.610;13.244;2023-02-13T18:17:15;38.30;;;13.95;;
41943;SDS011;27636;52.610;13.244;2023-02-13T18:22:19;31.95;;;10.38;;
41943;SDS011;27636;52.610;13.244;2023-02-13T18:27:24;23.00;;;9.02;;
41943;SDS011;27636;52.610;13.244;2023-02-13T18:32:28;24.13;;;8.15;;
41943;SDS011;27636;52.610;13.244;2023-02-13T18:37:32;25.95;;;9.20;;
41943;SDS011;27636;52.610;13.244;2023-02-13T18:42:37;29.73;;;9.80;;
41943;SDS011;27636;52.610;13.244;2023-02-13T18:47:40;24.25;;;8.88;;
41943;SDS011;27636;52.610;13.244;2023-02-13T18:52:43;29.25;;;9.82;;
41943;SDS011;27636;52.610;13.244;2023-02-13T18:57:51;23.80;;;7.57;;
41943;SDS011;27636;52.610;13.244;2023-02-13T19:02:56;21.73;;;8.18;;
41943;SDS011;27636;52.610;13.244;2023-02-13T19:13:04;30.27;;;9.57;;
41943;SDS011;27636;52.610;13.244;2023-02-13T19:18:07;32.03;;;10.97;;
41943;SDS011;27636;52.610;13.244;2023-02-13T19:23:11;29.38;;;10.25;;
41943;SDS011;27636;52.610;13.244;2023-02-13T19:28:16;26.48;;;8.93;;
41943;SDS011;27636;52.610;13.244;2023-02-13T19:33:19;30.35;;;9.77;;
41943;SDS011;27636;52.610;13.244;2023-02-13T19:38:23;27.77;;;9.77;;
41943;SDS011;27636;52.610;13.244;2023-02-13T19:43:27;25.42;;;8.95;;
41943;SDS011;27636;52.610;13.244;2023-02-13T19:48:31;29.53;;;11.07;;
41943;SDS011;27636;52.610;13.244;2023-02-13T19:53:34;30.42;;;11.15;;
41943;SDS011;27636;52.610;13.244;2023-02-13T19:58:39;30.33;;;11.52;;
41943;SDS011;27636;52.610;13.244;2023-02-13T20:03:44;30.70;;;11.07;;
41943;SDS011;27636;52.610;13.244;2023-02-13T20:08:47;29.67;;;10.55;;
41943;SDS011;27636;52.610;13.244;2023-02-13T20:13:53;33.97;;;11.32;;
41943;SDS011;27636;52.610;13.244;2023-02-13T20:18:58;30.60;;;10.82;;
41943;SDS011;27636;52.610;13.244;2023-02-13T20:24:03;29.88;;;10.30;;
41943;SDS011;27636;52.610;13.244;2023-02-13T20:29:08;29.63;;;9.48;;
41943;SDS011;27636;52.610;13.244;2023-02-13T20:34:12;32.15;;;11.35;;
41943;SDS011;27636;52.610;13.244;2023-02-13T20:39:16;24.17;;;8.48;;
41943;SDS011;27636;52.610;13.244;2023-02-13T20:44:20;28.88;;;9.85;;
41943;SDS011;27636;52.610;13.244;2023-02-13T20:49:24;28.20;;;10.45;;
41943;SDS011;27636;52.610;13.244;2023-02-13T20:54:28;32.20;;;9.60;;
41943;SDS011;27636;52.610;13.244;2023-02-13T20:59:32;31.25;;;9.02;;
41943;SDS011;27636;52.610;13.244;2023-02-13T21:04:36;31.48;;;10.27;;
41943;SDS011;27636;52.610;13.244;2023-02-13T21:09:39;22.55;;;8.43;;
41943;SDS011;27636;52.610;13.244;2023-02-13T21:14:44;32.90;;;10.07;;
41943;SDS011;27636;52.610;13.244;2023-02-13T21:19:47;36.33;;;9.87;;
41943;SDS011;27636;52.610;13.244;2023-02-13T21:24:50;29.35;;;8.85;;
41943;SDS011;27636;52.610;13.244;2023-02-13T21:29:55;27.83;;;9.00;;
41943;SDS011;27636;52.610;13.244;2023-02-13T21:34:59;22.02;;;8.48;;
41943;SDS011;27636;52.610;13.244;2023-02-13T21:40:03;29.50;;;10.60;;
41943;SDS011;27636;52.610;13.244;2023-02-13T21:45:09;27.47;;;9.50;;
41943;SDS011;27636;52.610;13.244;2023-02-13T21:50:13;30.90;;;11.00;;
41943;SDS011;27636;52.610;13.244;2023-02-13T21:55:16;29.63;;;9.10;;
41943;SDS011;27636;52.610;13.244;2023-02-13T22:00:21;24.90;;;9.10;;
41943;SDS011;27636;52.610;13.244;2023-02-13T22:05:25;27.95;;;9.48;;
41943;SDS011;27636;52.610;13.244;2023-02-13T22:10:28;19.45;;;7.72;;
41943;SDS011;27636;52.610;13.244;2023-02-13T22:15:32;25.58;;;8.75;;
41943;SDS011;27636;52.610;13.244;2023-02-13T22:20:36;28.73;;;9.23;;
41943;SDS011;27636;52.610;13.244;2023-02-13T22:25:39;24.40;;;9.05;;
41943;SDS011;27636;52.610;13.244;2023-02-13T22:30:49;33.42;;;10.30;;
41943;SDS011;27636;52.610;13.244;2023-02-13T22:35:53;28.25;;;8.93;;
41943;SDS011;27636;52.610;13.244;2023-02-13T22:40:56;35.22;;;9.80;;
41943;SDS011;27636;52.610;13.244;2023-02-13T22:46:08;23.60;;;9.43;;
41943;SDS011;27636;52.610;13.244;2023-02-13T22:51:15;26.23;;;9.60;;
41943;SDS011;27636;52.610;13.244;2023-02-13T22:56:20;30.40;;;10.55;;
41943;SDS011;27636;52.610;13.244;2023-02-13T23:01:27;25.63;;;8.55;;
41943;SDS011;27636;52.610;13.244;2023-02-13T23:11:33;30.58;;;8.60;;
41943;SDS011;27636;52.610;13.244;2023-02-13T23:16:57;27.95;;;10.68;;
41943;SDS011;27636;52.610;13.244;2023-02-13T23:22:18;30.88;;;9.10;;
41943;SDS011;27636;52.610;13.244;2023-02-13T23:27:22;26.80;;;9.10;;
41943;SDS011;27636;52.610;13.244;2023-02-13T23:32:26;23.48;;;8.60;;
41943;SDS011;27636;52.610;13.244;2023-02-13T23:37:30;34.92;;;8.93;;
41943;SDS011;27636;52.610;13.244;2023-02-13T23:42:34;26.17;;;8.10;;
41943;SDS011;27636;52.610;13.244;2023-02-13T23:47:38;25.65;;;8.82;;
41943;SDS011;27636;52.610;13.244;2023-02-13T23:52:41;25.75;;;8.60;;
41943;SDS011;27636;52.610;13.244;2023-02-13T23:57:45;25.23;;;9.52;;
